Time;durP1;ratioP1;P1;durP2;ratioP2;P2;SDS_P1;SDS_P2;PMS_P1;PMS_P2;Temp;Humidity;BMP_temperature;BMP_pressure;BME280_temperature;BME280_humidity;BME280_pressure;Samples;Min_cycle;Max_cycle;Signal;HPM_P1;HPM_P2
2021/07/22 00:00:24;;;;;;;9.77;6.43;;;17.60;92.10;;;;;;5054745;28;20063;-67
2021/07/22 00:02:51;;;;;;;11.80;6.30;;;17.60;92.40;;;;;;5052276;28;20029;-67
2021/07/22 00:05:17;;;;;;;8.48;6.47;;;17.60;92.80;;;;;;5051595;28;20040;-70
2021/07/22 00:07:46;;;;;;;7.95;5.90;;;17.50;93.10;;;;;;5051341;28;20029;-67
2021/07/22 00:10:12;;;;;;;13.50;7.22;;;17.50;93.20;;;;;;5051778;28;20036;-67
2021/07/22 00:12:38;;;;;;;8.35;6.53;;;17.50;93.30;;;;;;5050457;28;20025;-67
2021/07/22 00:15:08;;;;;;;11.23;6.47;;;17.40;93.60;;;;;;5051608;28;20037;-67
2021/07/22 00:17:34;;;;;;;10.60;6.25;;;17.40;93.50;;;;;;5050139;28;20017;-67
2021/07/22 00:20:02;;;;;;;9.82;6.18;;;17.40;93.60;;;;;;5051308;28;20029;-67
2021/07/22 00:22:28;;;;;;;11.73;6.03;;;17.40;93.80;;;;;;5049993;28;20040;-67
2021/07/22 00:24:54;;;;;;;11.23;6.97;;;17.30;94.00;;;;;;5051214;28;20036;-67
2021/07/22 00:27:20;;;;;;;8.70;6.93;;;17.30;94.30;;;;;;5047249;28;20025;-70
2021/07/22 00:29:46;;;;;;;10.05;6.57;;;17.30;94.50;;;;;;5050298;28;20108;-67
2021/07/22 00:32:12;;;;;;;9.95;6.78;;;17.20;94.70;;;;;;5050147;28;20104;-67
2021/07/22 00:34:38;;;;;;;8.82;6.68;;;17.20;95.10;;;;;;5051440;28;20021;-67
2021/07/22 00:37:04;;;;;;;13.52;6.30;;;17.20;95.20;;;;;;5054672;28;20501;-67
2021/07/22 00:39:30;;;;;;;9.68;6.93;;;17.10;95.40;;;;;;5050407;28;20061;-67
2021/07/22 00:41:55;;;;;;;8.63;6.70;;;17.10;95.90;;;;;;5051188;28;20060;-67
2021/07/22 00:44:21;;;;;;;11.02;6.65;;;17.10;96.50;;;;;;5050475;28;20086;-69
2021/07/22 00:46:47;;;;;;;8.63;7.18;;;17.00;96.80;;;;;;5050316;28;20029;-67
2021/07/22 00:49:14;;;;;;;9.55;6.10;;;17.00;97.30;;;;;;5055281;28;20021;-67
2021/07/22 00:51:40;;;;;;;9.80;6.53;;;17.00;97.80;;;;;;5050306;28;20063;-67
2021/07/22 00:54:06;;;;;;;12.02;7.53;;;16.90;98.10;;;;;;5050630;28;20056;-68
2021/07/22 00:56:34;;;;;;;9.13;7.15;;;16.80;98.40;;;;;;5041805;28;20041;-67
2021/07/22 00:59:03;;;;;;;10.05;7.43;;;16.80;98.70;;;;;;5051446;28;20029;-67
2021/07/22 01:01:29;;;;;;;12.20;6.93;;;16.70;99.10;;;;;;5056534;28;20101;-67
2021/07/22 01:03:55;;;;;;;10.45;7.18;;;16.80;99.50;;;;;;5050835;28;20103;-67
2021/07/22 01:06:21;;;;;;;9.20;6.85;;;16.80;99.70;;;;;;5049794;28;20112;-70
2021/07/22 01:08:46;;;;;;;9.63;7.03;;;16.70;99.90;;;;;;5050850;28;20083;-67
2021/07/22 01:11:12;;;;;;;10.90;7.43;;;16.70;99.90;;;;;;5050688;28;20033;-67
2021/07/22 01:13:38;;;;;;;9.52;7.45;;;16.70;99.90;;;;;;5050130;28;20140;-67
2021/07/22 01:16:03;;;;;;;11.55;7.65;;;16.60;99.90;;;;;;5050483;28;20111;-67
2021/07/22 01:18:29;;;;;;;10.10;7.32;;;16.60;99.90;;;;;;5049523;28;20043;-67
2021/07/22 01:20:55;;;;;;;10.68;7.65;;;16.60;99.90;;;;;;5053623;28;20060;-67
2021/07/22 01:23:20;;;;;;;12.90;8.20;;;16.50;99.90;;;;;;5054218;28;20036;-70
2021/07/22 01:25:47;;;;;;;11.20;7.85;;;16.50;99.90;;;;;;5050270;28;20033;-66
2021/07/22 01:28:13;;;;;;;10.60;7.80;;;16.50;99.90;;;;;;5050092;28;20123;-67
2021/07/22 01:30:39;;;;;;;10.75;7.60;;;16.50;99.90;;;;;;5051327;28;20056;-67
2021/07/22 01:33:05;;;;;;;10.50;7.47;;;16.50;99.90;;;;;;5053141;28;20048;-67
2021/07/22 01:35:31;;;;;;;12.77;7.72;;;16.40;99.90;;;;;;5049592;28;20386;-67
2021/07/22 01:37:57;;;;;;;10.02;7.15;;;16.40;99.90;;;;;;5050605;28;20029;-67
2021/07/22 01:40:22;;;;;;;11.65;7.75;;;16.40;99.90;;;;;;5056666;28;20031;-69
2021/07/22 01:42:48;;;;;;;9.30;7.55;;;16.30;99.90;;;;;;5056643;28;20025;-66
2021/07/22 01:45:14;;;;;;;10.55;7.55;;;16.30;99.90;;;;;;5054885;28;20394;-67
2021/07/22 01:47:41;;;;;;;10.93;7.20;;;16.20;99.90;;;;;;5054724;28;20025;-67
2021/07/22 01:50:07;;;;;;;8.43;7.05;;;16.20;99.90;;;;;;5049933;28;20033;-67
2021/07/22 01:52:33;;;;;;;12.00;7.95;;;16.10;99.90;;;;;;5049711;28;20048;-67
2021/07/22 01:54:59;;;;;;;9.32;7.28;;;16.10;99.90;;;;;;5050410;28;20049;-66
2021/07/22 01:57:25;;;;;;;11.00;8.20;;;16.00;99.90;;;;;;5052844;28;20052;-67
2021/07/22 01:59:51;;;;;;;11.95;7.75;;;16.10;99.90;;;;;;5053779;28;20472;-67
2021/07/22 02:02:16;;;;;;;11.10;8.43;;;16.00;99.90;;;;;;5055180;28;20064;-67
2021/07/22 02:04:42;;;;;;;13.80;8.20;;;16.00;99.90;;;;;;5056451;28;20029;-67
2021/07/22 02:07:10;;;;;;;10.82;7.53;;;16.00;99.90;;;;;;5053057;28;20485;-67
2021/07/22 02:09:36;;;;;;;11.90;7.90;;;15.90;99.90;;;;;;5052448;28;20417;-67
2021/07/22 02:12:02;;;;;;;14.82;9.05;;;15.90;99.90;;;;;;5053898;28;20044;-67
2021/07/22 02:14:28;;;;;;;13.38;8.00;;;15.90;99.90;;;;;;5052791;28;20600;-67
2021/07/22 02:16:54;;;;;;;11.68;8.07;;;15.90;99.90;;;;;;5053358;28;20128;-66
2021/07/22 02:19:20;;;;;;;9.90;7.60;;;15.80;99.90;;;;;;5053817;28;20435;-67
2021/07/22 02:21:46;;;;;;;10.63;7.45;;;15.80;99.90;;;;;;5053433;28;20104;-67
2021/07/22 02:24:12;;;;;;;11.90;8.25;;;15.80;99.90;;;;;;5053131;28;20033;-67
2021/07/22 02:26:38;;;;;;;12.07;8.27;;;15.80;99.90;;;;;;5052499;28;20044;-67
2021/07/22 02:29:05;;;;;;;9.68;7.60;;;15.80;99.90;;;;;;5053698;28;20031;-66
2021/07/22 02:31:31;;;;;;;9.43;7.40;;;15.70;99.90;;;;;;5053608;28;20087;-67
2021/07/22 02:33:57;;;;;;;10.25;7.65;;;15.70;99.90;;;;;;5053588;28;20048;-67
2021/07/22 02:36:22;;;;;;;12.68;9.02;;;15.70;99.90;;;;;;5055730;28;20025;-69
2021/07/22 02:38:48;;;;;;;12.77;8.77;;;15.60;99.90;;;;;;5053225;28;20025;-66
2021/07/22 02:41:14;;;;;;;12.82;8.68;;;15.70;99.90;;;;;;5052887;28;20581;-67
2021/07/22 02:43:41;;;;;;;12.20;8.63;;;15.60;99.90;;;;;;5052428;28;20074;-67
2021/07/22 02:46:10;;;;;;;14.00;8.50;;;15.60;99.90;;;;;;5053187;28;20036;-67
2021/07/22 02:48:37;;;;;;;12.80;8.30;;;15.60;99.90;;;;;;5051135;28;20029;-67
2021/07/22 02:51:04;;;;;;;12.68;8.88;;;15.60;99.90;;;;;;5052936;28;20025;-67
2021/07/22 02:53:31;;;;;;;14.23;8.75;;;15.60;99.90;;;;;;5052726;28;20032;-67
2021/07/22 02:55:58;;;;;;;11.73;8.38;;;15.60;99.90;;;;;;5052195;28;20575;-67
2021/07/22 02:58:24;;;;;;;12.95;8.45;;;15.60;99.90;;;;;;5052292;28;20159;-70
2021/07/22 03:00:49;;;;;;;13.52;8.82;;;15.50;99.90;;;;;;5060062;28;20111;-67
2021/07/22 03:03:15;;;;;;;15.05;8.90;;;15.50;99.90;;;;;;5055939;28;20033;-67
2021/07/22 03:05:41;;;;;;;12.25;8.85;;;15.50;99.90;;;;;;5051373;28;20039;-67
2021/07/22 03:08:06;;;;;;;12.70;9.07;;;15.40;99.90;;;;;;5052411;28;20463;-68
2021/07/22 03:10:33;;;;;;;17.42;9.00;;;15.40;99.90;;;;;;5051474;28;20070;-67
2021/07/22 03:12:58;;;;;;;16.00;9.77;;;15.30;99.90;;;;;;5052564;28;20036;-66
2021/07/22 03:15:24;;;;;;;13.25;8.45;;;15.30;99.90;;;;;;5051853;28;20037;-69
2021/07/22 03:17:50;;;;;;;11.18;8.48;;;15.30;99.90;;;;;;5052564;28;20033;-66
2021/07/22 03:20:16;;;;;;;11.52;8.18;;;15.30;99.90;;;;;;5053923;28;20040;-67
2021/07/22 03:22:41;;;;;;;12.10;8.50;;;15.30;99.90;;;;;;5049810;28;20056;-67
2021/07/22 03:25:08;;;;;;;12.93;8.90;;;15.20;99.90;;;;;;5052780;28;20474;-67
2021/07/22 03:27:34;;;;;;;11.77;9.13;;;15.20;99.90;;;;;;5051452;28;20493;-67
2021/07/22 03:29:59;;;;;;;15.45;9.65;;;15.20;99.90;;;;;;5052245;28;20032;-67
2021/07/22 03:32:25;;;;;;;14.50;9.50;;;15.20;99.90;;;;;;5057090;28;20033;-69
2021/07/22 03:34:51;;;;;;;11.77;9.18;;;15.20;99.90;;;;;;5051688;28;20070;-66
2021/07/22 03:37:17;;;;;;;14.95;9.65;;;15.10;99.90;;;;;;5051912;28;20462;-67
2021/07/22 03:39:43;;;;;;;12.57;9.02;;;15.10;99.90;;;;;;5051546;28;20025;-67
2021/07/22 03:42:08;;;;;;;15.10;9.98;;;15.10;99.90;;;;;;5051787;28;20029;-67
2021/07/22 03:44:35;;;;;;;14.45;9.40;;;15.10;99.90;;;;;;5052114;28;20051;-67
2021/07/22 03:47:01;;;;;;;11.82;9.02;;;15.10;99.90;;;;;;5051943;28;20083;-67
2021/07/22 03:49:27;;;;;;;17.15;10.05;;;15.10;99.90;;;;;;5051555;28;20029;-69
2021/07/22 03:51:56;;;;;;;15.93;9.85;;;15.10;99.90;;;;;;5051865;28;20103;-67
2021/07/22 03:54:22;;;;;;;12.95;8.70;;;15.10;99.90;;;;;;5052964;28;20045;-67
2021/07/22 03:56:47;;;;;;;20.02;10.50;;;15.10;99.90;;;;;;5050956;28;20055;-67
2021/07/22 03:59:17;;;;;;;14.05;9.23;;;15.10;99.90;;;;;;5051890;28;20053;-69
2021/07/22 04:01:43;;;;;;;10.20;8.53;;;15.10;99.90;;;;;;5059229;28;20103;-67
2021/07/22 04:04:09;;;;;;;12.60;9.05;;;15.10;99.90;;;;;;5051578;28;20443;-67
2021/07/22 04:06:36;;;;;;;14.70;9.38;;;15.20;99.90;;;;;;5050785;28;20037;-67
2021/07/22 04:09:03;;;;;;;15.25;9.60;;;15.20;99.90;;;;;;5051725;28;20033;-67
2021/07/22 04:11:29;;;;;;;12.77;9.88;;;15.20;99.90;;;;;;5050486;28;20127;-67
2021/07/22 04:13:55;;;;;;;15.43;9.73;;;15.30;99.90;;;;;;5051821;28;20063;-66
2021/07/22 04:16:21;;;;;;;10.32;8.43;;;15.30;99.90;;;;;;5051401;28;20036;-67
2021/07/22 04:18:46;;;;;;;11.68;8.68;;;15.30;99.90;;;;;;5051233;28;20083;-67
2021/07/22 04:21:12;;;;;;;12.50;8.63;;;15.30;99.90;;;;;;5050593;28;20029;-67
2021/07/22 04:23:38;;;;;;;13.50;9.30;;;15.40;99.90;;;;;;5050708;28;20051;-67
2021/07/22 04:26:04;;;;;;;13.38;9.93;;;15.40;99.90;;;;;;5051033;28;20406;-67
2021/07/22 04:28:29;;;;;;;15.00;9.00;;;15.40;99.90;;;;;;5050425;28;20040;-72
2021/07/22 04:30:55;;;;;;;14.98;9.27;;;15.40;99.90;;;;;;5054635;28;20071;-67
2021/07/22 04:33:21;;;;;;;12.57;9.05;;;15.50;99.90;;;;;;5052571;28;20036;-66
2021/07/22 04:35:46;;;;;;;11.18;9.20;;;15.50;99.90;;;;;;5050793;28;20029;-67
2021/07/22 04:38:12;;;;;;;15.55;9.25;;;15.50;99.90;;;;;;5056957;28;20363;-66
2021/07/22 04:40:38;;;;;;;13.20;8.52;;;15.60;99.90;;;;;;5049605;28;20045;-67
2021/07/22 04:43:03;;;;;;;16.70;8.73;;;15.60;99.90;;;;;;5050441;28;20036;-67
2021/07/22 04:45:29;;;;;;;12.52;9.43;;;15.70;99.90;;;;;;5063373;28;20041;-68
2021/07/22 04:47:55;;;;;;;13.32;9.73;;;15.80;99.90;;;;;;5059607;28;20048;-67
2021/07/22 04:50:21;;;;;;;13.93;9.18;;;15.90;99.90;;;;;;5049793;28;20029;-66
2021/07/22 04:52:47;;;;;;;13.52;9.85;;;15.90;99.90;;;;;;5050006;28;20036;-66
2021/07/22 04:55:12;;;;;;;14.32;9.85;;;16.00;99.90;;;;;;5050544;28;20539;-67
2021/07/22 04:57:38;;;;;;;15.18;10.00;;;16.10;99.90;;;;;;5050075;28;20036;-66
2021/07/22 05:00:05;;;;;;;11.88;10.15;;;16.20;99.90;;;;;;5049605;28;20398;-67
2021/07/22 05:02:31;;;;;;;16.00;9.85;;;16.20;99.90;;;;;;5053119;28;20025;-67
2021/07/22 05:04:56;;;;;;;13.52;10.10;;;16.30;99.90;;;;;;5053409;28;20040;-67
2021/07/22 05:07:22;;;;;;;13.85;10.57;;;16.40;99.90;;;;;;5050381;28;20059;-66
2021/07/22 05:09:48;;;;;;;19.42;11.07;;;16.50;99.90;;;;;;5049633;28;20073;-65
2021/07/22 05:12:13;;;;;;;15.75;11.30;;;16.60;99.90;;;;;;5049217;28;20033;-67
2021/07/22 05:14:39;;;;;;;14.00;10.48;;;16.60;99.90;;;;;;5049462;28;20033;-67
2021/07/22 05:17:05;;;;;;;16.23;11.13;;;16.70;99.90;;;;;;5050368;28;20049;-68
2021/07/22 05:19:31;;;;;;;14.15;10.77;;;16.80;99.90;;;;;;5050038;28;20091;-70
2021/07/22 05:21:57;;;;;;;16.58;11.40;;;16.90;99.90;;;;;;5050063;28;20458;-67
2021/07/22 05:24:23;;;;;;;21.38;11.48;;;17.00;99.90;;;;;;5049859;28;20036;-67
2021/07/22 05:26:49;;;;;;;14.90;10.98;;;17.00;99.90;;;;;;5049512;28;20041;-67
2021/07/22 05:29:16;;;;;;;17.55;10.93;;;17.20;99.90;;;;;;5050610;28;20477;-67
2021/07/22 05:31:43;;;;;;;19.05;11.10;;;17.30;99.90;;;;;;5049872;28;20075;-67
2021/07/22 05:34:10;;;;;;;17.35;12.13;;;17.40;99.90;;;;;;5049906;28;20502;-68
2021/07/22 05:36:36;;;;;;;16.17;10.90;;;17.50;99.90;;;;;;5052369;28;20040;-76
2021/07/22 05:39:03;;;;;;;20.05;12.13;;;17.60;99.90;;;;;;5054010;28;20025;-82
2021/07/22 05:41:29;;;;;;;20.02;11.30;;;17.70;99.90;;;;;;5053392;28;20104;-84
2021/07/22 05:43:55;;;;;;;18.50;11.80;;;17.70;99.90;;;;;;5053571;28;20038;-83
2021/07/22 05:46:21;;;;;;;17.23;11.07;;;17.80;99.90;;;;;;5054474;28;20036;-84
2021/07/22 05:48:48;;;;;;;17.85;12.55;;;17.80;99.90;;;;;;5058127;28;20235;-86
2021/07/22 05:51:14;;;;;;;16.42;11.55;;;17.90;99.90;;;;;;5055018;28;20029;-85
2021/07/22 05:53:40;;;;;;;20.58;12.95;;;17.90;99.90;;;;;;5053161;28;20029;-85
2021/07/22 05:56:05;;;;;;;21.85;12.55;;;18.00;99.90;;;;;;5054124;28;20102;-81
2021/07/22 05:58:31;;;;;;;20.23;13.30;;;18.00;99.90;;;;;;5054187;28;20124;-80
2021/07/22 06:00:58;;;;;;;17.40;11.13;;;18.10;99.90;;;;;;5054600;28;20148;-82
2021/07/22 06:03:23;;;;;;;24.40;12.55;;;18.10;99.90;;;;;;5055584;28;20029;-86
2021/07/22 06:05:49;;;;;;;21.13;12.90;;;18.20;99.90;;;;;;5053500;28;20033;-82
2021/07/22 06:08:15;;;;;;;17.08;11.73;;;18.20;99.90;;;;;;5054577;28;20497;-82
2021/07/22 06:10:41;;;;;;;16.05;11.60;;;18.20;99.90;;;;;;5052929;28;20392;-82
2021/07/22 06:13:07;;;;;;;16.90;12.63;;;18.20;99.90;;;;;;5052188;28;20439;-81
2021/07/22 06:15:33;;;;;;;17.25;11.43;;;18.20;99.90;;;;;;5053259;28;20072;-79
2021/07/22 06:17:59;;;;;;;19.52;13.15;;;18.30;99.90;;;;;;5053817;28;20513;-82
2021/07/22 06:20:25;;;;;;;19.33;11.68;;;18.30;99.90;;;;;;5052891;28;20028;-82
2021/07/22 06:22:51;;;;;;;22.27;13.63;;;18.40;99.90;;;;;;5052964;28;20630;-83
2021/07/22 06:25:16;;;;;;;23.67;12.82;;;18.50;99.90;;;;;;5046948;28;20104;-81
2021/07/22 06:27:43;;;;;;;17.08;11.73;;;18.60;99.90;;;;;;5053766;28;20041;-82
2021/07/22 06:30:10;;;;;;;17.60;13.10;;;18.70;99.90;;;;;;5054068;28;20073;-82
2021/07/22 06:32:36;;;;;;;21.30;12.95;;;18.80;99.90;;;;;;5053446;28;20017;-81
2021/07/22 06:35:02;;;;;;;24.17;12.85;;;19.00;99.50;;;;;;5052553;28;20052;-82
2021/07/22 06:37:28;;;;;;;18.73;12.73;;;19.10;99.40;;;;;;5051858;28;20053;-82
2021/07/22 06:39:54;;;;;;;17.58;12.65;;;19.30;98.50;;;;;;5050897;28;20103;-82
2021/07/22 06:42:20;;;;;;;19.73;13.32;;;19.50;98.10;;;;;;5053152;28;20180;-83
2021/07/22 06:44:45;;;;;;;19.90;12.52;;;19.70;97.50;;;;;;5050680;28;20032;-82
2021/07/22 06:47:11;;;;;;;18.13;11.98;;;19.80;96.50;;;;;;5051905;28;20060;-83
2021/07/22 06:49:36;;;;;;;22.23;12.00;;;19.80;96.20;;;;;;5051445;28;20390;-81
2021/07/22 06:52:03;;;;;;;21.00;12.32;;;19.80;95.70;;;;;;5052742;28;20036;-83
2021/07/22 06:54:29;;;;;;;18.63;13.10;;;19.90;95.30;;;;;;5051697;28;20049;-83
2021/07/22 06:56:55;;;;;;;19.52;11.18;;;20.00;94.90;;;;;;5051462;28;20690;-83
2021/07/22 06:59:20;;;;;;;22.65;12.10;;;20.20;94.60;;;;;;5051460;28;20033;-83
2021/07/22 07:01:46;;;;;;;17.15;10.82;;;20.30;93.20;;;;;;5050527;28;20025;-83
2021/07/22 07:04:11;;;;;;;17.88;11.45;;;20.30;92.60;;;;;;5050896;28;20355;-83
2021/07/22 07:06:37;;;;;;;19.52;12.50;;;20.40;92.90;;;;;;5052252;28;20036;-81
2021/07/22 07:09:06;;;;;;;19.02;11.52;;;20.50;93.10;;;;;;5051917;28;20021;-82
2021/07/22 07:11:35;;;;;;;18.88;12.15;;;20.70;92.80;;;;;;5052002;28;20028;-82
2021/07/22 07:14:00;;;;;;;24.75;12.30;;;20.80;91.60;;;;;;5050779;28;20040;-84
2021/07/22 07:16:26;;;;;;;18.65;11.27;;;20.90;91.40;;;;;;5051084;28;20394;-82
2021/07/22 07:18:52;;;;;;;22.48;12.60;;;20.90;91.20;;;;;;5050630;28;20037;-83
2021/07/22 07:21:17;;;;;;;21.73;13.13;;;20.90;91.10;;;;;;5052048;28;20028;-85
2021/07/22 07:23:43;;;;;;;19.25;11.65;;;21.00;91.30;;;;;;5050487;28;20028;-81
2021/07/22 07:26:10;;;;;;;22.42;13.25;;;21.00;91.30;;;;;;5049929;28;20048;-85
2021/07/22 07:28:36;;;;;;;19.90;12.82;;;21.10;91.10;;;;;;5050205;28;20029;-81
2021/07/22 07:31:02;;;;;;;21.40;12.40;;;21.30;90.50;;;;;;5051983;28;20029;-84
2021/07/22 07:33:28;;;;;;;19.70;12.85;;;21.30;90.10;;;;;;5050186;28;20025;-83
2021/07/22 07:35:54;;;;;;;24.27;14.32;;;21.30;90.20;;;;;;5051208;28;20067;-80
2021/07/22 07:38:21;;;;;;;23.77;13.48;;;21.40;89.50;;;;;;5051811;28;20446;-80
2021/07/22 07:40:47;;;;;;;28.00;15.07;;;21.40;89.50;;;;;;5051267;28;20033;-82
2021/07/22 07:43:17;;;;;;;22.25;14.10;;;21.50;87.70;;;;;;5052365;28;20470;-82
2021/07/22 07:45:43;;;;;;;23.60;15.15;;;21.60;87.70;;;;;;5058590;28;20078;-81
2021/07/22 07:48:12;;;;;;;23.92;14.75;;;21.60;87.60;;;;;;5068857;28;20033;-81
2021/07/22 07:50:38;;;;;;;24.45;15.13;;;21.70;86.90;;;;;;5052905;28;20025;-81
2021/07/22 07:53:14;;;;;;;19.80;13.38;;;21.70;85.30;;;;;;5051056;28;20386;-83
2021/07/22 07:55:41;;;;;;;27.45;15.38;;;21.80;85.00;;;;;;5051653;28;20091;-82
2021/07/22 07:58:07;;;;;;;23.90;14.35;;;21.80;84.50;;;;;;5051558;28;20370;-83
2021/07/22 08:00:33;;;;;;;22.60;14.48;;;21.90;82.70;;;;;;5052518;28;20474;-83
2021/07/22 08:02:59;;;;;;;23.85;13.52;;;21.90;81.50;;;;;;5044465;28;20041;-83
2021/07/22 08:05:25;;;;;;;20.52;13.65;;;21.90;81.40;;;;;;5053364;28;20060;-83
2021/07/22 08:07:51;;;;;;;20.00;12.25;;;21.90;82.10;;;;;;5054308;28;20052;-81
2021/07/22 08:10:17;;;;;;;22.55;11.80;;;22.00;81.30;;;;;;5051554;28;20064;-82
2021/07/22 08:12:43;;;;;;;21.50;11.70;;;22.00;81.00;;;;;;5050900;28;20053;-81
2021/07/22 08:15:10;;;;;;;22.60;12.90;;;22.00;81.20;;;;;;5051147;28;20059;-80
2021/07/22 08:17:36;;;;;;;19.83;11.85;;;22.20;81.40;;;;;;5052294;28;20033;-81
2021/07/22 08:20:05;;;;;;;15.55;10.02;;;22.30;80.60;;;;;;5051338;28;20521;-83
2021/07/22 08:22:31;;;;;;;13.68;9.45;;;22.40;80.90;;;;;;5051499;28;20028;-83
2021/07/22 08:24:58;;;;;;;13.00;9.43;;;22.60;79.50;;;;;;5057192;28;20182;-83
2021/07/22 08:27:28;;;;;;;12.60;9.32;;;22.80;76.60;;;;;;5051759;28;20033;-84
2021/07/22 08:29:54;;;;;;;13.43;8.95;;;22.90;75.60;;;;;;5050148;28;20029;-84
2021/07/22 08:32:20;;;;;;;13.70;9.85;;;22.90;75.70;;;;;;5049505;28;20124;-84
2021/07/22 08:34:46;;;;;;;14.43;8.75;;;23.00;74.70;;;;;;5050269;28;20494;-84
2021/07/22 08:37:12;;;;;;;12.07;7.85;;;23.00;75.20;;;;;;5049818;28;20036;-85
2021/07/22 08:39:42;;;;;;;15.73;9.38;;;23.00;74.90;;;;;;5051170;28;20024;-71
2021/07/22 08:42:10;;;;;;;11.98;7.88;;;23.20;73.40;;;;;;5050901;28;20352;-68
2021/07/22 08:44:37;;;;;;;11.32;7.95;;;23.20;73.80;;;;;;5050419;28;20079;-68
2021/07/22 08:47:07;;;;;;;13.60;8.57;;;23.40;73.20;;;;;;5050589;28;20033;-68
2021/07/22 08:49:33;;;;;;;;;;;23.50;72.20;;;;;;5050426;28;20032;-69
2021/07/22 08:52:00;;;;;;;20.38;7.90;;;23.60;71.50;;;;;;5049185;28;19913;-68
2021/07/22 08:54:26;;;;;;;10.02;6.75;;;23.60;73.00;;;;;;5054163;28;20056;-68
2021/07/22 08:56:54;;;;;;;15.45;8.98;;;23.70;72.90;;;;;;5050024;28;20060;-68
2021/07/22 08:59:22;;;;;;;12.90;7.55;;;23.90;72.50;;;;;;5050471;28;20051;-68
2021/07/22 09:01:51;;;;;;;9.35;7.18;;;24.00;71.60;;;;;;5049771;28;20104;-68
2021/07/22 09:04:16;;;;;;;14.15;8.85;;;24.20;70.40;;;;;;5050776;28;20410;-68
2021/07/22 09:06:42;;;;;;;11.65;8.18;;;24.30;68.90;;;;;;5049723;28;20108;-71
2021/07/22 09:09:13;;;;;;;13.63;7.38;;;24.40;67.90;;;;;;5050798;28;20104;-68
2021/07/22 09:11:55;;;;;;;10.45;7.22;;;24.30;67.30;;;;;;5050039;28;20021;-71
2021/07/22 09:14:22;;;;;;;9.60;6.88;;;24.40;67.60;;;;;;5048199;28;20064;-68
2021/07/22 09:16:47;;;;;;;11.60;6.90;;;24.50;65.80;;;;;;5049847;28;20064;-68
2021/07/22 09:19:35;;;;;;;20.27;7.43;;;24.50;66.00;;;;;;5050169;28;20060;-68
2021/07/22 09:22:02;;;;;;;12.32;6.75;;;24.60;66.40;;;;;;5049014;28;20575;-68
2021/07/22 09:24:28;;;;;;;11.65;7.22;;;24.80;66.30;;;;;;5055058;28;20108;-68
2021/07/22 09:26:56;;;;;;;14.90;6.43;;;24.90;65.20;;;;;;5051365;28;20068;-71
2021/07/22 09:29:22;;;;;;;8.63;6.65;;;25.10;64.30;;;;;;5050316;28;20024;-67
2021/07/22 09:31:47;;;;;;;12.43;7.45;;;25.10;63.90;;;;;;5049181;28;20382;-67
2021/07/22 09:34:18;;;;;;;9.73;7.40;;;25.30;62.60;;;;;;5050038;28;20064;-67
2021/07/22 09:36:44;;;;;;;25.80;7.05;;;25.50;61.80;;;;;;5049418;28;20029;-68
2021/07/22 09:39:36;;;;;;;7.53;6.47;;;25.60;61.90;;;;;;5049141;28;20028;-67
2021/07/22 09:42:04;;;;;;;12.73;6.75;;;25.70;60.70;;;;;;5048686;28;20056;-67
2021/07/22 09:44:38;;;;;;;8.45;6.88;;;25.80;61.40;;;;;;5050104;28;20409;-67
2021/07/22 09:47:06;;;;;;;10.35;7.32;;;26.00;60.30;;;;;;5047081;28;20028;-67
2021/07/22 09:49:34;;;;;;;10.57;7.07;;;26.00;60.60;;;;;;5050101;28;20029;-68
2021/07/22 09:52:03;;;;;;;13.25;6.82;;;26.00;59.60;;;;;;5049854;28;20100;-67
2021/07/22 09:54:36;;;;;;;8.73;6.18;;;26.00;58.10;;;;;;5052420;28;20053;-68
2021/07/22 09:57:15;;;;;;;10.00;6.90;;;26.00;58.50;;;;;;5049246;28;20064;-68
2021/07/22 09:59:46;;;;;;;12.05;7.25;;;26.10;58.20;;;;;;5050006;28;20028;-71
2021/07/22 10:02:24;;;;;;;7.28;6.40;;;26.20;58.80;;;;;;5048908;28;20036;-69
2021/07/22 10:04:52;;;;;;;10.50;7.53;;;26.30;58.30;;;;;;5049377;28;20033;-68
2021/07/22 10:07:21;;;;;;;8.52;6.68;;;26.50;58.30;;;;;;5042686;28;20029;-68
2021/07/22 10:09:58;;;;;;;41.17;7.45;;;26.60;58.20;;;;;;5049290;28;20470;-67
2021/07/22 10:12:24;;;;;;;7.63;6.55;;;26.70;57.50;;;;;;5049236;28;20486;-68
2021/07/22 10:14:58;;;;;;;12.20;6.97;;;26.80;57.90;;;;;;5048735;28;20112;-68
2021/07/22 10:17:30;;;;;;;11.05;6.93;;;26.80;58.30;;;;;;5049327;28;20033;-67
2021/07/22 10:19:58;;;;;;;10.13;6.63;;;26.90;58.30;;;;;;5050220;28;20028;-67
2021/07/22 10:22:25;;;;;;;11.32;6.93;;;26.90;57.70;;;;;;5053676;28;20466;-68
2021/07/22 10:24:54;;;;;;;7.75;6.13;;;27.10;56.20;;;;;;5052782;28;20025;-68
2021/07/22 10:27:20;;;;;;;8.25;6.78;;;27.10;56.60;;;;;;5053409;28;20041;-68
2021/07/22 10:29:46;;;;;;;9.98;6.97;;;27.20;56.90;;;;;;5052138;28;20112;-69
2021/07/22 10:32:15;;;;;;;7.82;6.38;;;27.30;54.70;;;;;;5053715;28;20040;-68
2021/07/22 10:34:42;;;;;;;7.53;6.57;;;27.40;53.90;;;;;;5052669;28;20429;-71
2021/07/22 10:37:07;;;;;;;9.35;6.00;;;27.40;55.80;;;;;;5053169;28;20037;-68
2021/07/22 10:40:00;;;;;;;6.88;6.10;;;27.50;55.70;;;;;;5053319;28;20343;-68
2021/07/22 10:42:45;;;;;;;9.35;6.45;;;27.60;55.40;;;;;;5046310;28;20048;-68
2021/07/22 10:45:19;;;;;;;8.60;7.20;;;27.70;56.00;;;;;;5053539;28;20108;-69
2021/07/22 10:48:06;;;;;;;10.25;7.07;;;27.80;55.90;;;;;;5052460;28;20462;-68
2021/07/22 10:50:38;;;;;;;7.88;6.63;;;27.80;55.10;;;;;;5059265;28;20179;-67
2021/07/22 10:53:04;;;;;;;10.55;7.20;;;27.70;56.40;;;;;;5052614;28;20083;-66
2021/07/22 10:55:42;;;;;;;8.23;6.95;;;27.70;55.50;;;;;;5057218;28;20490;-68
2021/07/22 10:58:29;;;;;;;10.05;7.00;;;27.50;56.20;;;;;;5051910;28;20435;-67
2021/07/22 11:00:56;;;;;;;10.10;7.07;;;27.50;56.80;;;;;;5052101;28;20478;-67
2021/07/22 11:03:34;;;;;;;10.85;7.20;;;27.40;55.60;;;;;;5052613;28;20051;-66
2021/07/22 11:06:01;;;;;;;11.68;7.30;;;27.40;56.30;;;;;;5052175;28;20083;-67
2021/07/22 11:08:29;;;;;;;12.27;6.90;;;27.30;56.40;;;;;;5052995;28;20028;-66
2021/07/22 11:11:01;;;;;;;12.55;7.60;;;27.50;58.00;;;;;;5051534;28;20060;-67
2021/07/22 11:13:33;;;;;;;11.23;7.80;;;27.50;55.90;;;;;;5052964;28;20063;-66
2021/07/22 11:16:01;;;;;;;11.13;7.30;;;27.50;56.60;;;;;;5051739;28;20068;-67
2021/07/22 11:18:44;;;;;;;12.57;7.50;;;27.40;56.20;;;;;;5045190;28;20071;-67
2021/07/22 11:21:11;;;;;;;8.88;6.88;;;27.50;57.40;;;;;;5052250;28;20057;-68
2021/07/22 11:23:37;;;;;;;10.68;6.95;;;27.60;56.40;;;;;;5052807;28;20517;-68
2021/07/22 11:26:04;;;;;;;15.63;7.18;;;27.80;56.90;;;;;;5053160;28;20051;-69
2021/07/22 11:28:29;;;;;;;15.95;7.05;;;28.00;55.00;;;;;;5052422;28;20116;-69
2021/07/22 11:31:13;;;;;;;12.52;7.55;;;28.10;55.50;;;;;;5051715;28;20449;-66
2021/07/22 11:33:39;;;;;;;11.07;7.00;;;28.20;54.20;;;;;;5051925;28;20108;-69
2021/07/22 11:36:12;;;;;;;8.55;6.88;;;28.10;54.50;;;;;;5052001;28;20048;-67
2021/07/22 11:38:41;;;;;;;12.18;6.70;;;28.20;55.20;;;;;;5032895;28;20018;-68
2021/07/22 11:41:12;;;;;;;12.13;6.82;;;28.30;54.30;;;;;;5049525;28;20029;-67
2021/07/22 11:43:43;;;;;;;12.10;7.20;;;28.40;54.40;;;;;;5052679;28;20052;-69
2021/07/22 11:46:11;;;;;;;11.95;6.88;;;28.50;54.40;;;;;;5052912;28;20508;-67
2021/07/22 11:48:37;;;;;;;12.20;6.90;;;28.70;54.30;;;;;;5052256;28;20021;-67
2021/07/22 11:51:05;;;;;;;19.48;7.40;;;28.70;53.50;;;;;;5050634;28;20044;-67
2021/07/22 11:53:31;;;;;;;8.27;6.97;;;28.90;55.20;;;;;;5052256;28;20032;-67
2021/07/22 11:55:59;;;;;;;11.45;7.90;;;28.90;53.40;;;;;;5068019;28;20091;-67
2021/07/22 11:58:25;;;;;;;10.82;6.63;;;29.10;53.10;;;;;;5056094;28;20509;-67
2021/07/22 12:00:51;;;;;;;9.38;7.45;;;29.10;52.70;;;;;;5051358;28;20128;-67
2021/07/22 12:03:22;;;;;;;9.95;7.40;;;29.20;53.40;;;;;;5052206;28;20359;-67
2021/07/22 12:05:49;;;;;;;9.63;7.68;;;29.30;52.80;;;;;;5051136;28;20033;-67
2021/07/22 12:08:19;;;;;;;11.68;7.60;;;29.40;51.70;;;;;;5051721;28;20398;-67
2021/07/22 12:10:46;;;;;;;;;;;29.50;51.90;;;;;;5051256;28;20478;-67
2021/07/22 12:13:12;;;;;;;11.00;7.65;;;29.50;51.90;;;;;;5051537;28;19905;-67
2021/07/22 12:15:39;;;;;;;9.60;7.28;;;29.60;52.20;;;;;;5051698;28;20047;-67
2021/07/22 12:18:06;;;;;;;9.68;7.80;;;29.60;51.30;;;;;;5051447;28;20044;-67
2021/07/22 12:20:33;;;;;;;16.33;8.52;;;29.60;51.10;;;;;;5051533;28;20046;-67
2021/07/22 12:23:19;;;;;;;9.00;8.00;;;29.40;50.70;;;;;;5054527;28;20822;-67
2021/07/22 12:26:16;;;;;;;10.18;8.25;;;29.30;51.80;;;;;;5051679;28;20029;-68
2021/07/22 12:28:44;;;;;;;11.27;7.93;;;29.40;51.20;;;;;;5036876;28;20047;-69
2021/07/22 12:31:17;;;;;;;11.45;8.13;;;29.50;51.60;;;;;;5051569;28;20029;-67
2021/07/22 12:33:43;;;;;;;11.48;8.00;;;29.60;51.10;;;;;;5051718;28;20147;-69
2021/07/22 12:36:20;;;;;;;13.95;8.07;;;29.70;51.40;;;;;;5043166;28;20122;-67